Time;durP1;ratioP1;P1;durP2;ratioP2;P2;SDS_P1;SDS_P2;PMS_P1;PMS_P2;Temp;Humidity;BMP_temperature;BMP_pressure;BME280_temperature;BME280_humidity;BME280_pressure;Samples;Min_cycle;Max_cycle;Signal;HPM_P1;HPM_P2
2021/07/28 00:01:54;;;;;;;6.45;4.15;;;;;;;;;;6249473;23;20056;-86
2021/07/28 00:04:23;;;;;;;8.45;4.22;;;;;;;;;;6246801;23;20464;-85
2021/07/28 00:06:50;;;;;;;7.30;4.15;;;;;;;;;;6245878;23;20111;-86
2021/07/28 00:09:17;;;;;;;7.50;4.15;;;;;;;;;;6250035;23;20029;-85
2021/07/28 00:11:55;;;;;;;7.70;4.30;;;;;;;;;;6249643;23;20024;-85
2021/07/28 00:14:21;;;;;;;7.55;3.85;;;;;;;;;;6250226;22;20016;-85
2021/07/28 00:16:51;;;;;;;7.90;5.07;;;;;;;;;;6249349;22;20024;-85
2021/07/28 00:19:28;;;;;;;8.00;4.43;;;;;;;;;;6246205;22;20275;-84
2021/07/28 00:25:02;;;;;;;5.03;4.07;;;;;;;;;;6259931;22;20047;-85
2021/07/28 00:27:29;;;;;;;8.10;4.97;;;;;;;;;;6269490;22;20012;-84
2021/07/28 00:29:57;;;;;;;5.82;4.72;;;;;;;;;;6266954;22;20020;-85
2021/07/28 00:32:23;;;;;;;6.45;4.75;;;;;;;;;;6264851;22;20233;-85
2021/07/28 00:34:50;;;;;;;6.40;5.15;;;;;;;;;;6259546;22;20028;-85
2021/07/28 00:37:17;;;;;;;8.82;5.10;;;;;;;;;;6251766;23;20028;-86
2021/07/28 00:39:50;;;;;;;7.80;5.10;;;;;;;;;;6251829;23;20330;-85
2021/07/28 00:42:17;;;;;;;10.55;5.88;;;;;;;;;;6250731;23;20076;-85
2021/07/28 00:44:44;;;;;;;8.95;6.13;;;;;;;;;;6185047;23;1489061;-85
2021/07/28 00:47:14;;;;;;;10.38;6.45;;;;;;;;;;6252438;23;20024;-85
2021/07/28 00:49:48;;;;;;;9.38;5.93;;;;;;;;;;6265456;23;20039;-84
2021/07/28 00:52:14;;;;;;;9.23;6.47;;;;;;;;;;6265811;22;20063;-85
2021/07/28 00:54:41;;;;;;;8.20;6.25;;;;;;;;;;6264294;22;20028;-85
2021/07/28 00:57:08;;;;;;;10.52;7.13;;;;;;;;;;6253870;23;20020;-85
2021/07/28 00:59:35;;;;;;;12.52;7.53;;;;;;;;;;6255755;23;20024;-84
2021/07/28 01:02:02;;;;;;;11.52;7.15;;;;;;;;;;6254527;23;20031;-85
2021/07/28 01:04:29;;;;;;;10.30;7.90;;;;;;;;;;6255232;23;20020;-85
2021/07/28 01:06:57;;;;;;;12.18;7.60;;;;;;;;;;6252597;23;20131;-85
2021/07/28 01:09:24;;;;;;;12.25;7.20;;;;;;;;;;6249081;22;20062;-85
2021/07/28 01:11:59;;;;;;;12.63;7.75;;;;;;;;;;6250160;23;20028;-85
2021/07/28 01:14:29;;;;;;;8.88;7.53;;;;;;;;;;6251790;23;20394;-84
2021/07/28 01:17:02;;;;;;;11.23;8.57;;;;;;;;;;6252526;23;20027;-84
2021/07/28 01:19:31;;;;;;;12.00;8.23;;;;;;;;;;6252360;22;20098;-85
2021/07/28 01:22:00;;;;;;;13.23;8.68;;;;;;;;;;6252770;23;20048;-85
2021/07/28 01:24:27;;;;;;;10.90;8.85;;;;;;;;;;6251139;23;20062;-85
2021/07/28 01:26:58;;;;;;;11.60;8.48;;;;;;;;;;6250972;22;20074;-84
2021/07/28 01:29:27;;;;;;;12.38;8.63;;;;;;;;;;6248044;23;20314;-85
2021/07/28 01:31:57;;;;;;;13.38;8.60;;;;;;;;;;6246373;23;20024;-85
2021/07/28 01:34:27;;;;;;;12.93;9.45;;;;;;;;;;6247175;23;20034;-84
2021/07/28 01:36:55;;;;;;;15.88;9.68;;;;;;;;;;6248314;23;20034;-84
2021/07/28 01:39:22;;;;;;;20.83;10.38;;;;;;;;;;6253094;22;20044;-85
2021/07/28 01:41:58;;;;;;;17.75;10.75;;;;;;;;;;6253082;22;20016;-85
2021/07/28 01:44:26;;;;;;;13.73;10.43;;;;;;;;;;6257654;23;20023;-85
2021/07/28 01:46:53;;;;;;;15.63;10.52;;;;;;;;;;6269385;22;20016;-85
2021/07/28 01:49:20;;;;;;;14.88;10.80;;;;;;;;;;6268449;23;20024;-85
2021/07/28 01:51:47;;;;;;;21.10;12.05;;;;;;;;;;6260772;23;20024;-85
2021/07/28 01:54:14;;;;;;;15.88;10.60;;;;;;;;;;6266259;22;20075;-85
2021/07/28 01:56:43;;;;;;;18.58;12.95;;;;;;;;;;6257414;22;20038;-85
2021/07/28 01:59:11;;;;;;;18.20;11.43;;;;;;;;;;6249947;22;20031;-85
2021/07/28 02:01:37;;;;;;;17.35;11.40;;;;;;;;;;6248569;22;20103;-85
2021/07/28 02:04:04;;;;;;;16.17;11.73;;;;;;;;;;6247351;23;20051;-84
2021/07/28 02:06:32;;;;;;;16.70;12.02;;;;;;;;;;6247718;23;20024;-85
2021/07/28 02:08:58;;;;;;;19.08;12.15;;;;;;;;;;6251617;23;20028;-85
2021/07/28 02:11:25;;;;;;;16.23;11.75;;;;;;;;;;6255268;22;20093;-85
2021/07/28 02:13:52;;;;;;;18.35;12.10;;;;;;;;;;6254609;22;20421;-85
2021/07/28 02:16:18;;;;;;;21.05;13.32;;;;;;;;;;6255310;22;20024;-85
2021/07/28 02:18:45;;;;;;;21.25;13.07;;;;;;;;;;6254481;23;20038;-84
2021/07/28 02:21:12;;;;;;;18.55;13.55;;;;;;;;;;6248168;23;20024;-85
2021/07/28 02:23:41;;;;;;;20.42;12.75;;;;;;;;;;6248609;23;20562;-84
2021/07/28 02:26:07;;;;;;;22.52;13.45;;;;;;;;;;6255120;23;20060;-84
2021/07/28 02:28:34;;;;;;;21.75;14.27;;;;;;;;;;6261413;23;20024;-84
2021/07/28 02:31:01;;;;;;;21.17;14.55;;;;;;;;;;6262367;23;20039;-84
2021/07/28 02:33:28;;;;;;;23.40;14.30;;;;;;;;;;6261134;23;20039;-84
2021/07/28 02:35:54;;;;;;;22.40;15.00;;;;;;;;;;6257528;22;20035;-84
2021/07/28 02:38:21;;;;;;;23.50;15.32;;;;;;;;;;6256029;22;20413;-85
2021/07/28 02:40:51;;;;;;;22.95;14.57;;;;;;;;;;6255860;22;20024;-85
2021/07/28 02:43:20;;;;;;;23.48;16.13;;;;;;;;;;6257299;22;20016;-85
2021/07/28 02:46:14;;;;;;;22.10;14.93;;;;;;;;;;6290359;22;20121;-85
2021/07/28 02:48:40;;;;;;;26.90;17.85;;;;;;;;;;6298081;22;20079;-85
2021/07/28 02:51:07;;;;;;;26.13;16.02;;;;;;;;;;6292588;22;20111;-85
2021/07/28 02:53:36;;;;;;;23.30;15.13;;;;;;;;;;6264921;22;20077;-85
2021/07/28 02:56:06;;;;;;;27.73;16.90;;;;;;;;;;6261479;22;20030;-85
2021/07/28 02:58:32;;;;;;;27.67;16.52;;;;;;;;;;6284969;22;20097;-85
2021/07/28 03:00:59;;;;;;;27.60;16.13;;;;;;;;;;6264456;22;20075;-85
2021/07/28 03:03:26;;;;;;;29.65;16.00;;;;;;;;;;6266782;22;20034;-84
2021/07/28 03:05:53;;;;;;;24.67;16.73;;;;;;;;;;6268400;22;20024;-84
2021/07/28 03:08:19;;;;;;;24.98;15.57;;;;;;;;;;6291019;22;20024;-85
2021/07/28 03:10:48;;;;;;;22.55;14.60;;;;;;;;;;6284041;22;20028;-84
2021/07/28 03:13:18;;;;;;;23.05;14.90;;;;;;;;;;6284329;22;20114;-84
2021/07/28 03:15:45;;;;;;;19.85;13.93;;;;;;;;;;6285002;22;20023;-85
2021/07/28 03:18:12;;;;;;;21.85;15.60;;;;;;;;;;6255559;22;20470;-85
2021/07/28 03:20:40;;;;;;;24.02;15.65;;;;;;;;;;6254338;22;20024;-85
2021/07/28 03:23:06;;;;;;;23.48;16.13;;;;;;;;;;6280077;22;20050;-85
2021/07/28 03:25:34;;;;;;;20.55;15.30;;;;;;;;;;6253848;22;20053;-84
2021/07/28 03:28:02;;;;;;;25.65;16.25;;;;;;;;;;6279565;22;20353;-85
2021/07/28 03:30:29;;;;;;;22.92;14.65;;;;;;;;;;6253534;22;20058;-85
2021/07/28 03:32:58;;;;;;;20.98;14.70;;;;;;;;;;6253022;22;20050;-85
2021/07/28 03:35:25;;;;;;;21.95;15.15;;;;;;;;;;6280034;22;20024;-85
2021/07/28 03:37:51;;;;;;;23.35;15.40;;;;;;;;;;6284325;22;20020;-86
2021/07/28 03:40:18;;;;;;;27.63;18.08;;;;;;;;;;6282281;22;20023;-85
2021/07/28 03:42:47;;;;;;;25.95;17.02;;;;;;;;;;6254019;22;20107;-85
2021/07/28 03:45:21;;;;;;;27.70;17.20;;;;;;;;;;6280956;22;20033;-86
2021/07/28 03:47:48;;;;;;;23.77;16.42;;;;;;;;;;6259634;22;20402;-84
2021/07/28 03:50:14;;;;;;;27.70;18.05;;;;;;;;;;6257284;22;20035;-84
2021/07/28 03:52:41;;;;;;;27.33;18.52;;;;;;;;;;6257218;22;20078;-85
2021/07/28 03:55:11;;;;;;;29.98;17.20;;;;;;;;;;6282678;22;20085;-85
2021/07/28 03:57:38;;;;;;;25.45;17.38;;;;;;;;;;6253982;22;20024;-84
2021/07/28 04:00:06;;;;;;;25.27;17.23;;;;;;;;;;6281509;22;20024;-85
2021/07/28 04:02:33;;;;;;;27.60;17.83;;;;;;;;;;6282182;22;20043;-85
2021/07/28 04:05:02;;;;;;;31.05;17.52;;;;;;;;;;6280430;22;20081;-84
2021/07/28 04:07:29;;;;;;;25.52;17.15;;;;;;;;;;6281941;22;20034;-84
2021/07/28 04:09:56;;;;;;;31.88;18.27;;;;;;;;;;6254608;22;20289;-84
2021/07/28 04:12:22;;;;;;;30.27;18.23;;;;;;;;;;6282653;22;20050;-84
2021/07/28 04:14:52;;;;;;;31.15;18.55;;;;;;;;;;6281299;22;20277;-84
2021/07/28 04:17:28;;;;;;;29.90;19.08;;;;;;;;;;6256411;22;20103;-85
2021/07/28 04:19:55;;;;;;;27.98;19.20;;;;;;;;;;6253003;22;20050;-84
2021/07/28 04:22:22;;;;;;;31.23;18.50;;;;;;;;;;6252480;22;20367;-84
2021/07/28 04:24:49;;;;;;;31.67;19.65;;;;;;;;;;6281049;22;20402;-85
2021/07/28 04:27:16;;;;;;;31.25;19.30;;;;;;;;;;6253895;22;20023;-85
2021/07/28 04:29:42;;;;;;;29.90;19.65;;;;;;;;;;6265729;22;20060;-85
2021/07/28 04:32:09;;;;;;;35.92;19.17;;;;;;;;;;6271561;22;20287;-86
2021/07/28 04:34:37;;;;;;;32.88;18.40;;;;;;;;;;6257636;22;20057;-86
2021/07/28 04:37:04;;;;;;;29.10;17.73;;;;;;;;;;6284198;22;20023;-85
2021/07/28 04:39:36;;;;;;;26.88;18.27;;;;;;;;;;6265982;22;20035;-86
2021/07/28 04:42:06;;;;;;;31.60;18.55;;;;;;;;;;6269201;22;20111;-86
2021/07/28 04:44:33;;;;;;;28.00;17.52;;;;;;;;;;6285419;22;20330;-86
2021/07/28 04:47:00;;;;;;;30.15;19.20;;;;;;;;;;6280794;22;20366;-86
2021/07/28 04:49:29;;;;;;;31.52;18.23;;;;;;;;;;6254076;22;20023;-86
2021/07/28 04:51:56;;;;;;;32.55;18.33;;;;;;;;;;6280772;22;20106;-86
2021/07/28 04:54:23;;;;;;;26.73;17.27;;;;;;;;;;6282389;22;20027;-86
2021/07/28 04:56:50;;;;;;;29.58;17.63;;;;;;;;;;6257751;22;20028;-86
2021/07/28 04:59:20;;;;;;;27.88;16.40;;;;;;;;;;6297477;22;20059;-85
2021/07/28 05:01:46;;;;;;;28.60;16.17;;;;;;;;;;6294890;22;20024;-85
2021/07/28 05:04:15;;;;;;;25.67;15.80;;;;;;;;;;6293488;22;20144;-85
2021/07/28 05:06:42;;;;;;;26.83;15.50;;;;;;;;;;6294157;22;20028;-86
2021/07/28 05:09:09;;;;;;;24.15;14.88;;;;;;;;;;6260524;22;20105;-86
2021/07/28 05:11:37;;;;;;;19.98;14.52;;;;;;;;;;6284193;22;20082;-85
2021/07/28 05:14:09;;;;;;;20.27;14.35;;;;;;;;;;6254184;22;20027;-86
2021/07/28 05:16:39;;;;;;;21.08;14.15;;;;;;;;;;6254760;22;20035;-85
2021/07/28 05:19:06;;;;;;;19.55;13.77;;;;;;;;;;6253761;22;20050;-85
2021/07/28 05:21:42;;;;;;;26.25;14.05;;;;;;;;;;6251457;22;20028;-85
2021/07/28 05:24:08;;;;;;;18.00;13.68;;;;;;;;;;6256811;22;20047;-86
2021/07/28 05:26:35;;;;;;;23.42;13.30;;;;;;;;;;6253227;22;20171;-86
2021/07/28 05:29:02;;;;;;;20.13;12.65;;;;;;;;;;6252291;22;20042;-85
2021/07/28 05:31:29;;;;;;;18.40;13.38;;;;;;;;;;6278647;22;20031;-85
2021/07/28 05:33:55;;;;;;;18.80;13.27;;;;;;;;;;6250924;22;20378;-85
2021/07/28 05:36:22;;;;;;;21.35;13.32;;;;;;;;;;6250525;22;20166;-85
2021/07/28 05:38:49;;;;;;;22.13;13.07;;;;;;;;;;6253714;22;20034;-85
2021/07/28 05:41:16;;;;;;;22.38;12.25;;;;;;;;;;6281604;22;20106;-85
2021/07/28 05:43:43;;;;;;;23.42;12.77;;;;;;;;;;6250718;22;20105;-85
2021/07/28 05:46:10;;;;;;;18.25;12.52;;;;;;;;;;6276616;22;20024;-86
2021/07/28 05:48:39;;;;;;;21.10;12.27;;;;;;;;;;6275574;22;20096;-84
2021/07/28 05:51:06;;;;;;;19.90;12.23;;;;;;;;;;6251653;22;20077;-85
2021/07/28 05:53:34;;;;;;;21.58;11.15;;;;;;;;;;6276393;22;20046;-84
2021/07/28 05:56:01;;;;;;;16.70;11.95;;;;;;;;;;6276847;22;20024;-85
2021/07/28 05:58:28;;;;;;;20.75;11.27;;;;;;;;;;6250780;22;20069;-84
2021/07/28 06:01:00;;;;;;;20.02;13.40;;;;;;;;;;6283033;22;20165;-84
2021/07/28 06:03:33;;;;;;;19.55;11.88;;;;;;;;;;6256186;22;20024;-84
2021/07/28 06:06:15;;;;;;;17.52;11.30;;;;;;;;;;6296836;22;20108;-86
2021/07/28 06:08:42;;;;;;;19.45;11.75;;;;;;;;;;6268021;22;20023;-86
2021/07/28 06:11:09;;;;;;;19.00;11.52;;;;;;;;;;6279623;22;20047;-84
2021/07/28 06:13:36;;;;;;;23.67;13.02;;;;;;;;;;6253445;22;20062;-85
2021/07/28 06:16:03;;;;;;;19.58;12.00;;;;;;;;;;6265374;22;20023;-85
2021/07/28 06:18:30;;;;;;;20.08;12.25;;;;;;;;;;6290426;22;20050;-85
2021/07/28 06:21:04;;;;;;;20.77;12.52;;;;;;;;;;6259507;22;20047;-85
2021/07/28 06:23:34;;;;;;;18.10;11.88;;;;;;;;;;6252143;22;20020;-85
2021/07/28 06:26:04;;;;;;;15.95;11.40;;;;;;;;;;6252746;22;20195;-85
2021/07/28 06:28:33;;;;;;;16.40;12.35;;;;;;;;;;6251546;22;20121;-85
2021/07/28 06:31:06;;;;;;;16.75;10.90;;;;;;;;;;6253145;22;20302;-84
2021/07/28 06:33:33;;;;;;;17.63;11.70;;;;;;;;;;6278131;22;20186;-85
2021/07/28 06:36:00;;;;;;;20.70;11.77;;;;;;;;;;6249055;22;20154;-85
2021/07/28 06:38:30;;;;;;;15.90;11.07;;;;;;;;;;6259895;22;20027;-84
2021/07/28 06:41:00;;;;;;;15.27;10.85;;;;;;;;;;6250650;22;20421;-85
2021/07/28 06:43:33;;;;;;;18.70;10.70;;;;;;;;;;6251348;22;20023;-85
2021/07/28 06:46:03;;;;;;;15.65;9.48;;;;;;;;;;6277766;22;20219;-85
2021/07/28 06:48:49;;;;;;;15.55;10.15;;;;;;;;;;6256101;22;20023;-86
2021/07/28 06:51:18;;;;;;;13.20;9.18;;;;;;;;;;6280070;22;20309;-85
2021/07/28 06:53:45;;;;;;;15.85;8.85;;;;;;;;;;6250845;22;20032;-84
2021/07/28 06:56:14;;;;;;;12.20;9.50;;;;;;;;;;6281663;22;20027;-84
2021/07/28 06:58:42;;;;;;;15.48;9.90;;;;;;;;;;6280419;22;20030;-86
2021/07/28 07:01:09;;;;;;;11.43;8.73;;;;;;;;;;6279093;22;20085;-85
2021/07/28 07:03:37;;;;;;;14.55;8.23;;;;;;;;;;6252691;22;20050;-84
2021/07/28 07:06:26;;;;;;;12.63;8.25;;;;;;;;;;6257093;22;20347;-86
2021/07/28 07:08:54;;;;;;;12.02;8.23;;;;;;;;;;6290014;22;20065;-85
2021/07/28 07:11:21;;;;;;;11.15;8.90;;;;;;;;;;6291781;22;20012;-85
2021/07/28 07:13:51;;;;;;;10.95;8.45;;;;;;;;;;6268848;22;20028;-86
2021/07/28 07:16:18;;;;;;;13.20;8.48;;;;;;;;;;6267333;22;20060;-85
2021/07/28 07:18:45;;;;;;;12.77;7.72;;;;;;;;;;6265856;22;20016;-86
2021/07/28 07:21:21;;;;;;;15.20;8.02;;;;;;;;;;6257793;22;20020;-85
2021/07/28 07:23:49;;;;;;;14.57;8.88;;;;;;;;;;6253892;22;20038;-85
2021/07/28 07:26:24;;;;;;;15.55;9.10;;;;;;;;;;6257971;22;20090;-85
2021/07/28 07:28:54;;;;;;;14.10;7.90;;;;;;;;;;6265180;22;20277;-85
2021/07/28 07:31:24;;;;;;;10.48;6.50;;;;;;;;;;6262009;22;20066;-85
2021/07/28 07:33:51;;;;;;;8.80;6.75;;;;;;;;;;6264488;22;20015;-85
2021/07/28 07:36:19;;;;;;;8.98;6.57;;;;;;;;;;6289836;22;20071;-84
2021/07/28 07:38:48;;;;;;;9.13;6.13;;;;;;;;;;6264650;22;20008;-84
2021/07/28 07:41:16;;;;;;;9.07;6.07;;;;;;;;;;6261915;22;20014;-85
2021/07/28 07:43:47;;;;;;;10.07;5.72;;;;;;;;;;6253050;22;20023;-85
2021/07/28 07:46:16;;;;;;;11.02;6.28;;;;;;;;;;6254461;22;20047;-86
2021/07/28 07:48:48;;;;;;;8.32;4.90;;;;;;;;;;6279280;22;20023;-85
2021/07/28 07:51:20;;;;;;;9.02;5.70;;;;;;;;;;6250292;22;20023;-86
2021/07/28 07:54:06;;;;;;;10.70;5.28;;;;;;;;;;6279451;22;20032;-86
2021/07/28 07:56:40;;;;;;;9.00;5.40;;;;;;;;;;6276002;22;20039;-86
2021/07/28 07:59:13;;;;;;;6.47;4.53;;;;;;;;;;6252990;22;20011;-87
2021/07/28 08:01:53;;;;;;;11.27;5.18;;;;;;;;;;6256213;22;20058;-88
2021/07/28 08:04:28;;;;;;;5.53;4.32;;;;;;;;;;6257823;22;20046;-86
2021/07/28 08:10:33;;;;;;;8.85;5.13;;;;;;;;;;6300235;22;20026;-88
2021/07/28 08:32:16;;;;;;;8.10;4.63;;;;;;;;;;6273752;22;20046;-85
2021/07/28 08:34:44;;;;;;;6.82;4.28;;;;;;;;;;6275871;22;20172;-85
2021/07/28 08:37:12;;;;;;;5.72;4.47;;;;;;;;;;6249868;22;20015;-85
2021/07/28 08:40:04;;;;;;;6.70;4.88;;;;;;;;;;6251752;22;20028;-86
2021/07/28 08:42:31;;;;;;;9.57;4.20;;;;;;;;;;6248249;22;20024;-85
2021/07/28 08:44:57;;;;;;;6.80;4.28;;;;;;;;;;6249889;22;20030;-86
2021/07/28 08:47:25;;;;;;;9.55;4.25;;;;;;;;;;6276275;22;20024;-86
2021/07/28 08:49:52;;;;;;;7.65;5.43;;;;;;;;;;6274863;22;20302;-86
2021/07/28 08:52:21;;;;;;;7.72;4.28;;;;;;;;;;6257812;22;20093;-84
2021/07/28 08:54:48;;;;;;;6.75;4.30;;;;;;;;;;6286601;22;20205;-85
2021/07/28 08:57:20;;;;;;;7.97;4.55;;;;;;;;;;6288909;22;20103;-84
2021/07/28 08:59:47;;;;;;;5.90;3.97;;;;;;;;;;6257677;22;20046;-86
2021/07/28 09:02:21;;;;;;;5.90;3.88;;;;;;;;;;6244437;22;20520;-87
2021/07/28 09:04:52;;;;;;;5.72;3.90;;;;;;;;;;6254767;22;20344;-85
2021/07/28 09:07:22;;;;;;;5.38;3.50;;;;;;;;;;6279178;22;20111;-86
2021/07/28 09:09:50;;;;;;;7.40;3.53;;;;;;;;;;6277813;22;20174;-84
2021/07/28 09:12:32;;;;;;;4.57;3.55;;;;;;;;;;6286202;22;20034;-86
2021/07/28 09:15:16;;;;;;;10.00;4.00;;;;;;;;;;6250495;22;20020;-85
2021/07/28 09:17:48;;;;;;;5.97;3.83;;;;;;;;;;6249126;22;20027;-85
2021/07/28 09:20:27;;;;;;;5.47;3.60;;;;;;;;;;6277628;22;20071;-85
2021/07/28 09:23:09;;;;;;;8.95;4.32;;;;;;;;;;6251362;22;20026;-84
2021/07/28 09:25:36;;;;;;;8.85;4.70;;;;;;;;;;6276461;22;20035;-84
2021/07/28 09:28:03;;;;;;;8.95;4.28;;;;;;;;;;6275644;22;20055;-84
2021/07/28 09:30:34;;;;;;;10.45;4.57;;;;;;;;;;6249554;22;20306;-84
2021/07/28 09:33:27;;;;;;;4.65;3.70;;;;;;;;;;6277324;22;20236;-85
2021/07/28 09:35:53;;;;;;;8.40;5.10;;;;;;;;;;6249275;22;20563;-84
2021/07/28 09:38:30;;;;;;;7.05;5.45;;;;;;;;;;6247545;22;20023;-83
2021/07/28 09:41:19;;;;;;;5.78;4.22;;;;;;;;;;6249500;22;20305;-84
2021/07/28 09:43:53;;;;;;;6.47;4.22;;;;;;;;;;6277534;22;20020;-84
2021/07/28 09:46:21;;;;;;;12.10;4.53;;;;;;;;;;6248867;22;20182;-84
2021/07/28 09:48:52;;;;;;;8.63;5.10;;;;;;;;;;6279006;22;20136;-84
2021/07/28 09:51:22;;;;;;;11.65;5.07;;;;;;;;;;6289826;22;20070;-84
2021/07/28 09:53:53;;;;;;;10.90;5.25;;;;;;;;;;6290155;22;20062;-85
2021/07/28 09:56:44;;;;;;;7.88;5.20;;;;;;;;;;6279401;22;20046;-86
2021/07/28 09:59:11;;;;;;;8.32;5.30;;;;;;;;;;6245812;22;20020;-84
2021/07/28 10:01:37;;;;;;;10.27;5.97;;;;;;;;;;6250755;22;20306;-85
2021/07/28 10:04:05;;;;;;;7.60;4.72;;;;;;;;;;6281835;22;20027;-85
2021/07/28 10:06:39;;;;;;;8.23;4.75;;;;;;;;;;6265635;22;20042;-85
2021/07/28 10:09:08;;;;;;;9.20;5.35;;;;;;;;;;6265270;22;20055;-85
2021/07/28 10:11:35;;;;;;;6.78;3.97;;;;;;;;;;6289809;22;20039;-84
2021/07/28 10:14:03;;;;;;;8.25;4.57;;;;;;;;;;6264296;22;20012;-83
2021/07/28 10:16:34;;;;;;;6.32;4.18;;;;;;;;;;6260896;22;20105;-85
2021/07/28 10:19:03;;;;;;;4.57;3.38;;;;;;;;;;6259381;22;20028;-85
2021/07/28 10:22:00;;;;;;;5.65;4.30;;;;;;;;;;6253971;22;20163;-84
2021/07/28 10:24:26;;;;;;;6.15;4.05;;;;;;;;;;6247158;22;20031;-86
2021/07/28 10:26:54;;;;;;;5.25;3.88;;;;;;;;;;6248978;22;20085;-85
2021/07/28 10:29:32;;;;;;;6.05;4.18;;;;;;;;;;6272942;22;20357;-83
2021/07/28 10:31:59;;;;;;;5.40;4.20;;;;;;;;;;6247661;22;20149;-84
2021/07/28 10:34:31;;;;;;;4.82;3.90;;;;;;;;;;6246521;22;20211;-84
2021/07/28 10:37:30;;;;;;;5.65;3.88;;;;;;;;;;6276831;22;20054;-84
2021/07/28 10:39:56;;;;;;;4.78;3.67;;;;;;;;;;6273263;22;20045;-84
2021/07/28 10:42:29;;;;;;;6.78;4.07;;;;;;;;;;6296727;22;20027;-83
2021/07/28 10:44:57;;;;;;;4.45;3.80;;;;;;;;;;6268736;22;20098;-83
2021/07/28 10:47:45;;;;;;;6.72;4.18;;;;;;;;;;6245642;22;20033;-83
2021/07/28 10:50:28;;;;;;;14.40;4.72;;;;;;;;;;6245434;22;20024;-84
2021/07/28 10:52:57;;;;;;;4.70;3.95;;;;;;;;;;6248230;22;20397;-83
2021/07/28 10:55:26;;;;;;;6.20;3.97;;;;;;;;;;6250065;22;20215;-84
2021/07/28 10:57:54;;;;;;;5.55;4.60;;;;;;;;;;6274179;22;20027;-85
2021/07/28 11:00:43;;;;;;;7.32;4.03;;;;;;;;;;6248160;22;20035;-84
2021/07/28 11:03:13;;;;;;;8.55;4.15;;;;;;;;;;6272769;22;20030;-84
2021/07/28 11:05:42;;;;;;;6.43;4.47;;;;;;;;;;6280218;22;20047;-84
2021/07/28 11:08:12;;;;;;;8.68;5.30;;;;;;;;;;6247857;22;20023;-85
2021/07/28 11:10:41;;;;;;;8.35;4.68;;;;;;;;;;6274265;22;20342;-85
2021/07/28 11:13:19;;;;;;;10.13;4.20;;;;;;;;;;6297437;22;20129;-85
2021/07/28 11:15:56;;;;;;;6.57;4.22;;;;;;;;;;6274882;22;20039;-84
2021/07/28 11:18:36;;;;;;;7.43;4.95;;;;;;;;;;6248826;22;20024;-85
2021/07/28 11:21:17;;;;;;;8.48;4.50;;;;;;;;;;6250018;22;20036;-86
2021/07/28 11:24:03;;;;;;;6.75;5.28;;;;;;;;;;6279293;22;20103;-84
2021/07/28 11:26:33;;;;;;;10.57;5.13;;;;;;;;;;6247992;22;20062;-84
2021/07/28 11:29:05;;;;;;;6.57;5.05;;;;;;;;;;6273578;22;20074;-84
2021/07/28 11:31:41;;;;;;;9.10;5.22;;;;;;;;;;6255098;22;20087;-86
2021/07/28 11:34:18;;;;;;;7.03;6.22;;;;;;;;;;6252544;22;20027;-84
2021/07/28 11:37:14;;;;;;;8.88;6.13;;;;;;;;;;6255501;22;20055;-86
2021/07/28 11:39:48;;;;;;;11.00;6.43;;;;;;;;;;6249975;22;20078;-84
2021/07/28 11:42:15;;;;;;;12.70;6.53;;;;;;;;;;6274494;22;20023;-83
2021/07/28 11:44:42;;;;;;;8.07;6.40;;;;;;;;;;6273361;22;20064;-84
2021/07/28 11:47:10;;;;;;;12.27;8.18;;;;;;;;;;6271406;22;20028;-83
2021/07/28 11:49:38;;;;;;;14.95;8.75;;;;;;;;;;6247768;22;20169;-81
2021/07/28 11:52:17;;;;;;;17.05;9.68;;;;;;;;;;6292052;22;20211;-82
2021/07/28 11:54:46;;;;;;;14.32;10.93;;;;;;;;;;6261624;22;20028;-84
2021/07/28 11:57:17;;;;;;;13.63;10.52;;;;;;;;;;6260248;22;20016;-82
2021/07/28 11:59:43;;;;;;;12.77;11.48;;;;;;;;;;6282562;22;20204;-80
2021/07/28 12:02:18;;;;;;;12.70;11.38;;;;;;;;;;6242447;22;20085;-82
2021/07/28 12:04:48;;;;;;;13.30;10.23;;;;;;;;;;6276472;22;20020;-85
2021/07/28 12:07:29;;;;;;;10.80;9.65;;;;;;;;;;6251059;22;20127;-81
2021/07/28 12:10:00;;;;;;;12.57;11.15;;;;;;;;;;6253363;22;20164;-82
2021/07/28 12:12:28;;;;;;;16.65;11.90;;;;;;;;;;6272780;22;20035;-80
2021/07/28 12:15:11;;;;;;;14.55;9.32;;;;;;;;;;6246392;22;20629;-80
2021/07/28 12:17:50;;;;;;;14.80;7.07;;;;;;;;;;6268962;22;20501;-79
2021/07/28 12:20:16;;;;;;;12.88;8.15;;;;;;;;;;6273920;22;20035;-81
2021/07/28 12:22:43;;;;;;;9.75;6.40;;;;;;;;;;6247201;22;20023;-80
2021/07/28 12:25:14;;;;;;;8.68;6.38;;;;;;;;;;6274747;22;20019;-79
2021/07/28 12:27:56;;;;;;;6.88;6.18;;;;;;;;;;6271834;22;20027;-79
2021/07/28 12:30:25;;;;;;;7.13;4.88;;;;;;;;;;6249742;22;20024;-81
2021/07/28 12:32:53;;;;;;;7.53;3.53;;;;;;;;;;6247213;22;20442;-82
2021/07/28 12:35:19;;;;;;;4.80;3.42;;;;;;;;;;6244212;22;20498;-82
2021/07/28 12:38:02;;;;;;;6.32;4.03;;;;;;;;;;6246008;22;20276;-82
2021/07/28 12:40:29;;;;;;;5.88;3.85;;;;;;;;;;6272179;22;20024;-82
2021/07/28 12:42:56;;;;;;;7.50;3.85;;;;;;;;;;6245121;22;20150;-83
2021/07/28 12:48:53;;;;;;;5.57;4.75;;;;;;;;;;6280261;22;20066;-84
2021/07/28 12:51:23;;;;;;;7.40;5.60;;;;;;;;;;6264975;22;20029;-83
2021/07/28 12:53:50;;;;;;;5.90;4.93;;;;;;;;;;6258690;22;20079;-84
2021/07/28 12:56:17;;;;;;;9.82;5.75;;;;;;;;;;6253168;22;20170;-84
2021/07/28 12:58:44;;;;;;;8.23;5.90;;;;;;;;;;6258939;22;20023;-84
2021/07/28 13:01:10;;;;;;;7.40;5.60;;;;;;;;;;6264375;22;20024;-84
2021/07/28 13:03:40;;;;;;;9.55;6.30;;;;;;;;;;6303657;22;20075;-85
2021/07/28 13:06:10;;;;;;;6.95;5.78;;;;;;;;;;6252869;22;20024;-85
2021/07/28 13:08:40;;;;;;;8.88;6.07;;;;;;;;;;6279061;22;20034;-84
2021/07/28 13:11:13;;;;;;;8.55;6.47;;;;;;;;;;6280495;22;20023;-84
2021/07/28 13:13:42;;;;;;;9.05;6.68;;;;;;;;;;6293132;22;20031;-85
2021/07/28 13:16:08;;;;;;;9.32;6.50;;;;;;;;;;6267261;22;20060;-85
2021/07/28 13:18:35;;;;;;;8.40;6.88;;;;;;;;;;6253946;22;20031;-85
2021/07/28 13:21:02;;;;;;;9.23;6.70;;;;;;;;;;6251840;22;20031;-84
2021/07/28 13:23:30;;;;;;;13.30;7.57;;;;;;;;;;6253855;22;20312;-84
2021/07/28 13:25:59;;;;;;;14.43;6.35;;;;;;;;;;6286896;22;20480;-87
2021/07/28 13:28:26;;;;;;;10.25;6.47;;;;;;;;;;6280701;22;20416;-86
2021/07/28 13:30:53;;;;;;;8.40;6.82;;;;;;;;;;6301861;22;20023;-86
2021/07/28 13:33:26;;;;;;;11.18;6.55;;;;;;;;;;6268951;22;20028;-86
2021/07/28 13:35:54;;;;;;;10.02;7.60;;;;;;;;;;6252114;22;20054;-85
2021/07/28 13:38:21;;;;;;;10.57;8.00;;;;;;;;;;6250035;22;20020;-85
2021/07/28 13:40:48;;;;;;;9.70;7.22;;;;;;;;;;6276493;22;20011;-85
2021/07/28 13:43:15;;;;;;;9.45;6.35;;;;;;;;;;6251094;22;20079;-85
2021/07/28 13:45:44;;;;;;;9.18;6.85;;;;;;;;;;6248773;22;20023;-85
2021/07/28 13:48:13;;;;;;;11.90;7.03;;;;;;;;;;6262151;22;20023;-85
2021/07/28 13:50:40;;;;;;;12.05;6.05;;;;;;;;;;6282272;22;20344;-86
2021/07/28 13:53:07;;;;;;;8.13;6.93;;;;;;;;;;6259951;22;20189;-86
2021/07/28 13:55:43;;;;;;;8.82;6.35;;;;;;;;;;6294717;22;20100;-88
2021/07/28 13:58:09;;;;;;;6.53;5.82;;;;;;;;;;6265582;22;20068;-84
2021/07/28 14:00:42;;;;;;;10.45;5.45;;;;;;;;;;6292470;22;20019;-84
2021/07/28 14:03:09;;;;;;;5.18;4.15;;;;;;;;;;6290171;22;20128;-84
2021/07/28 14:05:37;;;;;;;9.63;4.40;;;;;;;;;;6249834;22;20306;-85
2021/07/28 14:08:04;;;;;;;6.47;3.88;;;;;;;;;;6275190;22;20224;-85
2021/07/28 14:10:31;;;;;;;5.55;3.78;;;;;;;;;;6275550;22;20035;-86
2021/07/28 14:13:00;;;;;;;5.13;3.45;;;;;;;;;;6275345;22;20073;-85
2021/07/28 14:15:27;;;;;;;6.63;3.70;;;;;;;;;;6251440;22;20105;-85
2021/07/28 14:17:54;;;;;;;4.70;3.47;;;;;;;;;;6287507;22;20012;-85
2021/07/28 14:20:20;;;;;;;8.27;3.67;;;;;;;;;;6265227;22;20204;-85
2021/07/28 14:22:50;;;;;;;6.90;3.17;;;;;;;;;;6290354;22;20250;-86
2021/07/28 14:25:18;;;;;;;6.15;3.38;;;;;;;;;;6257675;22;20034;-86
2021/07/28 14:27:45;;;;;;;5.50;3.28;;;;;;;;;;6247190;22;20049;-85
2021/07/28 14:30:12;;;;;;;4.15;3.22;;;;;;;;;;6269663;22;20032;-85
2021/07/28 14:32:38;;;;;;;4.10;3.25;;;;;;;;;;6244378;23;20028;-84
2021/07/28 14:35:06;;;;;;;6.65;2.88;;;;;;;;;;6217493;23;20102;-85
2021/07/28 14:37:33;;;;;;;9.00;3.38;;;;;;;;;;6245205;23;20087;-86
2021/07/28 14:40:00;;;;;;;6.00;2.78;;;;;;;;;;6214115;23;20024;-85
2021/07/28 14:42:30;;;;;;;6.82;2.92;;;;;;;;;;6218076;23;20338;-85
2021/07/28 14:44:57;;;;;;;4.80;2.53;;;;;;;;;;6223197;23;20182;-86
2021/07/28 14:47:26;;;;;;;5.05;2.50;;;;;;;;;;6226217;23;20024;-86
2021/07/28 14:50:02;;;;;;;9.07;2.45;;;;;;;;;;6255732;23;20051;-86
2021/07/28 14:52:29;;;;;;;;;;;;;;;;;;6246443;23;20323;-85
2021/07/28 14:54:58;;;;;;;5.47;2.30;;;;;;;;;;6248150;23;20162;-85
2021/07/28 14:57:27;;;;;;;4.38;2.08;;;;;;;;;;6219605;23;20008;-85
2021/07/28 15:00:03;;;;;;;5.18;2.33;;;;;;;;;;6220386;23;20117;-86
2021/07/28 15:02:29;;;;;;;4.28;2.13;;;;;;;;;;6244860;23;20191;-84
2021/07/28 15:04:57;;;;;;;3.90;1.92;;;;;;;;;;6215654;23;20312;-85
2021/07/28 15:07:24;;;;;;;3.25;2.13;;;;;;;;;;6214658;23;20027;-85
2021/07/28 15:09:51;;;;;;;3.90;2.30;;;;;;;;;;6217191;23;20023;-86
2021/07/28 15:12:18;;;;;;;4.38;2.47;;;;;;;;;;6217684;23;20032;-86
2021/07/28 15:14:49;;;;;;;2.60;1.90;;;;;;;;;;6217014;23;20032;-84
2021/07/28 15:17:16;;;;;;;7.32;2.33;;;;;;;;;;6217802;23;20517;-85